Main page
METAR-TAF:

METAR-TAF

Airports :

Šiauliai International Airport

Šiauliai, Lithuania

latitude: 55-53-38N, longitude: 023-23-42E, elevation: 135 m

Current weather observation

The report was made 36 minutes ago, at 05:20 UTC
Wind 4 kt from the West/Southwest
Temperature -1°C
Humidity 100%
Pressure 1024 hPa
Visibility 10 km or more
no clouds below 1500 m and no cumulonimbus

METAR: EYSA 190520Z 25004KT CAVOK M01/M01 Q1024 NOSIG

Time: 08:56 (05:56 UTC)

Forecast

The report was made 56 minutes ago, at 05:00 UTC
Forecast valid from 19 at 06 UTC to 19 at 15 UTC
Wind 5 kt from variable directions
Visibility: 9000 m
Scattered clouds at a height of 3000 ft
Becoming
from 19 at 13 UTC to 19 at 14 UTC
Broken clouds at a height of 3000 ft

TAF: EYSA 190500Z 1906/1915 VRB05KT 9000 SCT030 BECMG 1913/1914 BKN030

Weather observations and forecasts of more than 4000 airports (METAR and TAF reports).

The available stations are represented by yellow and red dots on the map.

Hover mouse over dot to see the name of the station.

Then click to see weather observations and forecasts.

To change the map : click on the green buttons with a black cross to zoom in, on the green button with a dash to zoom out, or on the green arrows for adjacent maps.


METAR-TAF: